sensor_id;sensor_type;location;lat;lon;timestamp;temperature;humidity
34201;DHT22;20469;55.638;37.670;2022-10-03T00:01:33;14.60;99.90
34201;DHT22;20469;55.638;37.670;2022-10-03T00:07:13;14.50;99.90
34201;DHT22;20469;55.638;37.670;2022-10-03T00:10:09;14.50;99.90
34201;DHT22;20469;55.638;37.670;2022-10-03T00:15:36;14.40;99.90
34201;DHT22;20469;55.638;37.670;2022-10-03T00:18:21;14.80;99.90
34201;DHT22;20469;55.638;37.670;2022-10-03T00:21:02;14.60;99.90
34201;DHT22;20469;55.638;37.670;2022-10-03T00:23:50;14.60;99.90
34201;DHT22;20469;55.638;37.670;2022-10-03T00:26:34;14.60;99.90
34201;DHT22;20469;55.638;37.670;2022-10-03T00:32:01;14.60;99.90
34201;DHT22;20469;55.638;37.670;2022-10-03T00:34:43;14.60;99.90
34201;DHT22;20469;55.638;37.670;2022-10-03T00:37:25;14.70;99.90
34201;DHT22;20469;55.638;37.670;2022-10-03T00:40:21;14.70;99.90
34201;DHT22;20469;55.638;37.670;2022-10-03T00:43:15;14.70;99.90
34201;DHT22;20469;55.638;37.670;2022-10-03T00:46:07;14.70;99.90
34201;DHT22;20469;55.638;37.670;2022-10-03T00:49:01;14.70;99.90
34201;DHT22;20469;55.638;37.670;2022-10-03T00:52:02;14.80;99.90
34201;DHT22;20469;55.638;37.670;2022-10-03T00:57:52;14.90;99.90
34201;DHT22;20469;55.638;37.670;2022-10-03T01:00:27;14.90;99.90
34201;DHT22;20469;55.638;37.670;2022-10-03T01:09:01;14.90;99.90
34201;DHT22;20469;55.638;37.670;2022-10-03T01:11:47;14.90;99.90
34201;DHT22;20469;55.638;37.670;2022-10-03T01:14:22;15.00;99.90
34201;DHT22;20469;55.638;37.670;2022-10-03T01:17:18;15.00;99.90
34201;DHT22;20469;55.638;37.670;2022-10-03T01:29:01;15.00;99.90
34201;DHT22;20469;55.638;37.670;2022-10-03T01:31:51;15.10;99.90
34201;DHT22;20469;55.638;37.670;2022-10-03T01:34:32;15.10;99.90
34201;DHT22;20469;55.638;37.670;2022-10-03T01:37:22;15.00;99.90
34201;DHT22;20469;55.638;37.670;2022-10-03T01:40:02;15.10;99.90
34201;DHT22;20469;55.638;37.670;2022-10-03T01:42:40;15.10;99.90
34201;DHT22;20469;55.638;37.670;2022-10-03T01:48:12;15.10;99.90
34201;DHT22;20469;55.638;37.670;2022-10-03T01:56:42;15.20;99.90
34201;DHT22;20469;55.638;37.670;2022-10-03T01:59:18;15.20;99.90
34201;DHT22;20469;55.638;37.670;2022-10-03T02:01:57;15.30;99.90
34201;DHT22;20469;55.638;37.670;2022-10-03T02:04:44;15.10;99.90
34201;DHT22;20469;55.638;37.670;2022-10-03T02:07:24;15.30;99.90
34201;DHT22;20469;55.638;37.670;2022-10-03T02:10:18;15.30;99.90
34201;DHT22;20469;55.638;37.670;2022-10-03T02:12:59;15.40;99.90
34201;DHT22;20469;55.638;37.670;2022-10-03T02:18:52;15.40;99.90
34201;DHT22;20469;55.638;37.670;2022-10-03T02:21:23;15.30;99.90
34201;DHT22;20469;55.638;37.670;2022-10-03T02:33:07;15.60;99.90
34201;DHT22;20469;55.638;37.670;2022-10-03T02:35:55;15.60;99.90
34201;DHT22;20469;55.638;37.670;2022-10-03T02:41:54;16.30;99.90
34201;DHT22;20469;55.638;37.670;2022-10-03T02:44:44;15.70;99.90
34201;DHT22;20469;55.638;37.670;2022-10-03T02:47:44;15.70;99.90
34201;DHT22;20469;55.638;37.670;2022-10-03T02:54:08;15.70;99.90
34201;DHT22;20469;55.638;37.670;2022-10-03T02:57:03;15.70;99.90
34201;DHT22;20469;55.638;37.670;2022-10-03T03:18:05;15.70;99.90
34201;DHT22;20469;55.638;37.670;2022-10-03T03:20:56;15.70;99.90
34201;DHT22;20469;55.638;37.670;2022-10-03T03:23:45;15.70;99.90
34201;DHT22;20469;55.638;37.670;2022-10-03T03:29:46;15.70;99.90
34201;DHT22;20469;55.638;37.670;2022-10-03T03:35:36;15.80;99.90
34201;DHT22;20469;55.638;37.670;2022-10-03T03:38:26;15.70;99.90
34201;DHT22;20469;55.638;37.670;2022-10-03T03:41:30;15.80;99.90
34201;DHT22;20469;55.638;37.670;2022-10-03T03:47:10;15.90;99.90
34201;DHT22;20469;55.638;37.670;2022-10-03T03:52:44;15.90;99.90
34201;DHT22;20469;55.638;37.670;2022-10-03T03:55:35;15.90;99.90
34201;DHT22;20469;55.638;37.670;2022-10-03T04:07:28;16.00;99.90
34201;DHT22;20469;55.638;37.670;2022-10-03T04:15:55;15.70;99.90
34201;DHT22;20469;55.638;37.670;2022-10-03T04:18:47;14.50;99.90
34201;DHT22;20469;55.638;37.670;2022-10-03T04:21:58;16.00;99.90
34201;DHT22;20469;55.638;37.670;2022-10-03T04:24:48;16.10;99.90
34201;DHT22;20469;55.638;37.670;2022-10-03T04:27:34;15.90;99.90
34201;DHT22;20469;55.638;37.670;2022-10-03T04:30:16;16.00;99.90
34201;DHT22;20469;55.638;37.670;2022-10-03T04:33:26;16.00;99.90
34201;DHT22;20469;55.638;37.670;2022-10-03T04:36:21;16.00;99.90
34201;DHT22;20469;55.638;37.670;2022-10-03T04:41:49;16.00;99.90
34201;DHT22;20469;55.638;37.670;2022-10-03T04:44:42;16.00;99.90
34201;DHT22;20469;55.638;37.670;2022-10-03T04:47:24;16.10;99.90
34201;DHT22;20469;55.638;37.670;2022-10-03T04:50:00;16.10;99.90
34201;DHT22;20469;55.638;37.670;2022-10-03T04:52:39;16.10;99.90
34201;DHT22;20469;55.638;37.670;2022-10-03T04:55:26;16.10;99.90
34201;DHT22;20469;55.638;37.670;2022-10-03T04:58:06;16.20;99.90
34201;DHT22;20469;55.638;37.670;2022-10-03T05:03:59;16.20;99.90
34201;DHT22;20469;55.638;37.670;2022-10-03T05:06:50;16.20;99.90
34201;DHT22;20469;55.638;37.670;2022-10-03T05:12:20;16.30;99.90
34201;DHT22;20469;55.638;37.670;2022-10-03T05:14:58;16.30;99.90
34201;DHT22;20469;55.638;37.670;2022-10-03T05:17:44;16.30;99.90
34201;DHT22;20469;55.638;37.670;2022-10-03T05:20:23;16.30;99.90
34201;DHT22;20469;55.638;37.670;2022-10-03T05:23:10;16.70;99.90
34201;DHT22;20469;55.638;37.670;2022-10-03T05:25:59;16.30;99.90
34201;DHT22;20469;55.638;37.670;2022-10-03T05:29:01;16.30;99.90
34201;DHT22;20469;55.638;37.670;2022-10-03T05:31:45;16.30;99.90
34201;DHT22;20469;55.638;37.670;2022-10-03T05:40:18;16.40;99.90
34201;DHT22;20469;55.638;37.670;2022-10-03T05:42:57;16.40;99.90
34201;DHT22;20469;55.638;37.670;2022-10-03T05:45:35;16.40;99.90
34201;DHT22;20469;55.638;37.670;2022-10-03T05:48:29;16.30;99.90
34201;DHT22;20469;55.638;37.670;2022-10-03T06:00:18;16.30;99.90
34201;DHT22;20469;55.638;37.670;2022-10-03T06:03:13;16.30;99.90
34201;DHT22;20469;55.638;37.670;2022-10-03T06:06:14;16.40;99.90
34201;DHT22;20469;55.638;37.670;2022-10-03T06:09:19;16.40;99.90
34201;DHT22;20469;55.638;37.670;2022-10-03T06:12:08;16.40;99.90
34201;DHT22;20469;55.638;37.670;2022-10-03T06:17:50;16.30;99.90
34201;DHT22;20469;55.638;37.670;2022-10-03T06:29:32;16.40;99.90
34201;DHT22;20469;55.638;37.670;2022-10-03T06:35:12;16.50;99.90
34201;DHT22;20469;55.638;37.670;2022-10-03T06:41:12;16.50;99.90
34201;DHT22;20469;55.638;37.670;2022-10-03T06:44:05;16.50;99.90
34201;DHT22;20469;55.638;37.670;2022-10-03T06:56:03;16.40;99.90
34201;DHT22;20469;55.638;37.670;2022-10-03T06:58:51;16.30;99.90
34201;DHT22;20469;55.638;37.670;2022-10-03T07:07:36;16.20;99.90
34201;DHT22;20469;55.638;37.670;2022-10-03T07:10:27;16.20;99.90
34201;DHT22;20469;55.638;37.670;2022-10-03T07:13:00;16.20;99.90
34201;DHT22;20469;55.638;37.670;2022-10-03T07:15:54;16.30;99.90
34201;DHT22;20469;55.638;37.670;2022-10-03T07:25:02;16.00;99.90
34201;DHT22;20469;55.638;37.670;2022-10-03T07:27:53;16.00;99.90
34201;DHT22;20469;55.638;37.670;2022-10-03T07:30:26;18.80;99.90
34201;DHT22;20469;55.638;37.670;2022-10-03T07:39:24;16.00;99.90
34201;DHT22;20469;55.638;37.670;2022-10-03T07:45:11;15.90;99.90
34201;DHT22;20469;55.638;37.670;2022-10-03T07:48:21;15.60;99.90
34201;DHT22;20469;55.638;37.670;2022-10-03T07:51:13;15.80;99.90
34201;DHT22;20469;55.638;37.670;2022-10-03T07:56:56;15.60;99.90
34201;DHT22;20469;55.638;37.670;2022-10-03T07:59:57;15.60;99.90
34201;DHT22;20469;55.638;37.670;2022-10-03T08:02:57;15.60;99.90
34201;DHT22;20469;55.638;37.670;2022-10-03T08:05:50;15.50;99.90
34201;DHT22;20469;55.638;37.670;2022-10-03T08:08:43;15.60;99.90
34201;DHT22;20469;55.638;37.670;2022-10-03T08:20:37;15.50;99.90
34201;DHT22;20469;55.638;37.670;2022-10-03T08:29:25;15.60;99.90
34201;DHT22;20469;55.638;37.670;2022-10-03T08:35:21;15.50;99.90
34201;DHT22;20469;55.638;37.670;2022-10-03T08:38:11;15.50;99.90
34201;DHT22;20469;55.638;37.670;2022-10-03T08:41:18;15.60;99.90
34201;DHT22;20469;55.638;37.670;2022-10-03T08:50:06;15.20;99.90
34201;DHT22;20469;55.638;37.670;2022-10-03T08:56:05;15.40;99.90
34201;DHT22;20469;55.638;37.670;2022-10-03T09:01:51;12.40;99.90
34201;DHT22;20469;55.638;37.670;2022-10-03T09:13:35;15.40;99.90
34201;DHT22;20469;55.638;37.670;2022-10-03T09:16:31;15.40;99.90
34201;DHT22;20469;55.638;37.670;2022-10-03T09:22:23;15.50;99.90
34201;DHT22;20469;55.638;37.670;2022-10-03T09:25:13;15.50;99.90
34201;DHT22;20469;55.638;37.670;2022-10-03T09:36:58;15.80;99.90
34201;DHT22;20469;55.638;37.670;2022-10-03T09:46:01;15.60;99.90
34201;DHT22;20469;55.638;37.670;2022-10-03T09:48:59;15.60;99.90
34201;DHT22;20469;55.638;37.670;2022-10-03T09:51:53;15.90;99.90
34201;DHT22;20469;55.638;37.670;2022-10-03T09:57:40;16.50;99.90
34201;DHT22;20469;55.638;37.670;2022-10-03T10:06:08;15.90;99.90
34201;DHT22;20469;55.638;37.670;2022-10-03T10:08:56;15.70;99.90
34201;DHT22;20469;55.638;37.670;2022-10-03T10:11:55;15.70;99.90
34201;DHT22;20469;55.638;37.670;2022-10-03T10:14:54;15.40;99.90
34201;DHT22;20469;55.638;37.670;2022-10-03T10:23:40;14.30;99.90
34201;DHT22;20469;55.638;37.670;2022-10-03T10:29:28;13.60;99.90
34201;DHT22;20469;55.638;37.670;2022-10-03T10:32:26;13.80;99.90
34201;DHT22;20469;55.638;37.670;2022-10-03T10:35:28;13.80;99.90
34201;DHT22;20469;55.638;37.670;2022-10-03T10:47:12;16.50;99.90
34201;DHT22;20469;55.638;37.670;2022-10-03T10:50:07;15.90;99.90
34201;DHT22;20469;55.638;37.670;2022-10-03T11:02:06;15.00;99.90
34201;DHT22;20469;55.638;37.670;2022-10-03T11:05:14;14.70;99.90
34201;DHT22;20469;55.638;37.670;2022-10-03T11:14:14;14.10;99.90
34201;DHT22;20469;55.638;37.670;2022-10-03T11:17:10;14.10;99.90
34201;DHT22;20469;55.638;37.670;2022-10-03T11:26:11;13.90;99.90
34201;DHT22;20469;55.638;37.670;2022-10-03T11:29:15;14.40;99.90
34201;DHT22;20469;55.638;37.670;2022-10-03T11:32:17;13.90;99.90
34201;DHT22;20469;55.638;37.670;2022-10-03T11:35:18;14.00;99.90
34201;DHT22;20469;55.638;37.670;2022-10-03T11:38:23;17.90;99.90
34201;DHT22;20469;55.638;37.670;2022-10-03T11:41:20;17.50;99.90
34201;DHT22;20469;55.638;37.670;2022-10-03T11:47:13;14.60;99.90
34201;DHT22;20469;55.638;37.670;2022-10-03T11:52:56;13.80;99.90
34201;DHT22;20469;55.638;37.670;2022-10-03T11:55:31;13.90;99.90
34201;DHT22;20469;55.638;37.670;2022-10-03T12:01:05;13.70;99.90
34201;DHT22;20469;55.638;37.670;2022-10-03T12:03:47;12.90;99.90
34201;DHT22;20469;55.638;37.670;2022-10-03T12:09:45;13.50;99.90
34201;DHT22;20469;55.638;37.670;2022-10-03T12:12:42;15.00;99.90
34201;DHT22;20469;55.638;37.670;2022-10-03T12:18:15;13.40;99.90
34201;DHT22;20469;55.638;37.670;2022-10-03T12:21:11;13.30;99.90
34201;DHT22;20469;55.638;37.670;2022-10-03T12:29:27;12.90;99.90
34201;DHT22;20469;55.638;37.670;2022-10-03T12:40:53;14.90;99.90
34201;DHT22;20469;55.638;37.670;2022-10-03T12:43:40;12.70;99.90
34201;DHT22;20469;55.638;37.670;2022-10-03T12:46:14;12.80;99.90
34201;DHT22;20469;55.638;37.670;2022-10-03T12:48:50;12.10;99.90
34201;DHT22;20469;55.638;37.670;2022-10-03T12:51:37;12.30;99.90
34201;DHT22;20469;55.638;37.670;2022-10-03T12:54:29;12.10;99.90
34201;DHT22;20469;55.638;37.670;2022-10-03T12:57:17;12.20;99.90
34201;DHT22;20469;55.638;37.670;2022-10-03T13:03:05;12.40;99.90
34201;DHT22;20469;55.638;37.670;2022-10-03T13:05:54;12.40;99.90
34201;DHT22;20469;55.638;37.670;2022-10-03T13:08:39;12.30;99.90
34201;DHT22;20469;55.638;37.670;2022-10-03T13:14:36;12.00;99.90
34201;DHT22;20469;55.638;37.670;2022-10-03T13:17:27;11.80;99.90
34201;DHT22;20469;55.638;37.670;2022-10-03T13:20:27;11.90;99.90
34201;DHT22;20469;55.638;37.670;2022-10-03T13:31:52;11.90;99.90
34201;DHT22;20469;55.638;37.670;2022-10-03T13:34:25;11.80;99.90
34201;DHT22;20469;55.638;37.670;2022-10-03T13:37:06;12.20;99.90
34201;DHT22;20469;55.638;37.670;2022-10-03T13:39:46;11.70;99.90
34201;DHT22;20469;55.638;37.670;2022-10-03T13:42:19;11.50;99.90
34201;DHT22;20469;55.638;37.670;2022-10-03T13:44:53;11.60;99.90
34201;DHT22;20469;55.638;37.670;2022-10-03T13:47:24;11.60;99.90
34201;DHT22;20469;55.638;37.670;2022-10-03T13:49:57;11.40;99.90
34201;DHT22;20469;55.638;37.670;2022-10-03T13:52:41;11.30;99.90
34201;DHT22;20469;55.638;37.670;2022-10-03T13:55:27;11.40;99.90
34201;DHT22;20469;55.638;37.670;2022-10-03T13:58:15;11.50;99.90
34201;DHT22;20469;55.638;37.670;2022-10-03T14:01:11;11.40;99.90
34201;DHT22;20469;55.638;37.670;2022-10-03T14:04:08;12.40;99.90
34201;DHT22;20469;55.638;37.670;2022-10-03T14:10:04;11.50;99.90
34201;DHT22;20469;55.638;37.670;2022-10-03T14:15:49;11.10;99.90
34201;DHT22;20469;55.638;37.670;2022-10-03T14:18:42;11.10;99.90
34201;DHT22;20469;55.638;37.670;2022-10-03T14:21:28;10.90;99.90
34201;DHT22;20469;55.638;37.670;2022-10-03T14:24:16;10.90;99.90
34201;DHT22;20469;55.638;37.670;2022-10-03T14:26:51;10.70;99.90
34201;DHT22;20469;55.638;37.670;2022-10-03T14:29:34;10.80;99.90
34201;DHT22;20469;55.638;37.670;2022-10-03T14:35:32;10.40;99.90
34201;DHT22;20469;55.638;37.670;2022-10-03T14:38:29;11.10;99.90
34201;DHT22;20469;55.638;37.670;2022-10-03T14:41:19;10.80;99.90
34201;DHT22;20469;55.638;37.670;2022-10-03T14:43:58;10.70;99.90
34201;DHT22;20469;55.638;37.670;2022-10-03T14:46:30;10.70;99.90
34201;DHT22;20469;55.638;37.670;2022-10-03T14:49:01;10.70;99.90
34201;DHT22;20469;55.638;37.670;2022-10-03T14:51:51;10.70;99.90
34201;DHT22;20469;55.638;37.670;2022-10-03T14:54:25;13.60;99.90
34201;DHT22;20469;55.638;37.670;2022-10-03T14:56:54;10.50;99.90
34201;DHT22;20469;55.638;37.670;2022-10-03T14:59:30;10.60;99.90
34201;DHT22;20469;55.638;37.670;2022-10-03T15:02:25;10.60;99.90
34201;DHT22;20469;55.638;37.670;2022-10-03T15:05:09;10.50;99.90
34201;DHT22;20469;55.638;37.670;2022-10-03T15:07:41;10.60;99.90
34201;DHT22;20469;55.638;37.670;2022-10-03T15:10:17;10.20;99.90
34201;DHT22;20469;55.638;37.670;2022-10-03T15:13:05;10.50;99.90
34201;DHT22;20469;55.638;37.670;2022-10-03T15:15:39;11.00;99.90
34201;DHT22;20469;55.638;37.670;2022-10-03T15:18:13;10.50;99.90
34201;DHT22;20469;55.638;37.670;2022-10-03T15:20:51;10.50;99.90
34201;DHT22;20469;55.638;37.670;2022-10-03T15:23:37;10.50;99.90
34201;DHT22;20469;55.638;37.670;2022-10-03T15:26:18;10.70;99.90
34201;DHT22;20469;55.638;37.670;2022-10-03T15:28:56;10.60;99.90
34201;DHT22;20469;55.638;37.670;2022-10-03T15:31:39;10.60;99.90
34201;DHT22;20469;55.638;37.670;2022-10-03T15:34:24;10.50;99.90
34201;DHT22;20469;55.638;37.670;2022-10-03T15:37:19;10.60;99.90
34201;DHT22;20469;55.638;37.670;2022-10-03T15:40:02;10.50;99.90
34201;DHT22;20469;55.638;37.670;2022-10-03T15:42:49;10.40;99.90
34201;DHT22;20469;55.638;37.670;2022-10-03T15:45:27;10.50;99.90
34201;DHT22;20469;55.638;37.670;2022-10-03T15:48:12;10.50;99.90
34201;DHT22;20469;55.638;37.670;2022-10-03T15:50:51;10.50;99.90
34201;DHT22;20469;55.638;37.670;2022-10-03T15:53:34;10.40;99.90
34201;DHT22;20469;55.638;37.670;2022-10-03T15:56:48;10.30;99.90
34201;DHT22;20469;55.638;37.670;2022-10-03T15:59:28;10.30;99.90
34201;DHT22;20469;55.638;37.670;2022-10-03T16:02:14;10.20;99.90
34201;DHT22;20469;55.638;37.670;2022-10-03T16:04:53;10.40;99.90
34201;DHT22;20469;55.638;37.670;2022-10-03T16:07:43;10.10;99.90
34201;DHT22;20469;55.638;37.670;2022-10-03T16:10:24;10.00;99.90
34201;DHT22;20469;55.638;37.670;2022-10-03T16:13:21;9.90;99.90
34201;DHT22;20469;55.638;37.670;2022-10-03T16:16:19;9.90;99.90
34201;DHT22;20469;55.638;37.670;2022-10-03T16:19:19;9.80;99.90
34201;DHT22;20469;55.638;37.670;2022-10-03T16:22:20;9.90;99.90
34201;DHT22;20469;55.638;37.670;2022-10-03T16:25:15;9.80;99.90
34201;DHT22;20469;55.638;37.670;2022-10-03T16:27:58;9.70;99.90
34201;DHT22;20469;55.638;37.670;2022-10-03T16:30:40;10.00;99.90
34201;DHT22;20469;55.638;37.670;2022-10-03T16:33:26;9.70;99.90
34201;DHT22;20469;55.638;37.670;2022-10-03T16:36:03;9.90;99.90
34201;DHT22;20469;55.638;37.670;2022-10-03T16:38:58;9.80;99.90
34201;DHT22;20469;55.638;37.670;2022-10-03T16:41:38;9.90;99.90
34201;DHT22;20469;55.638;37.670;2022-10-03T16:44:35;9.90;99.90
34201;DHT22;20469;55.638;37.670;2022-10-03T16:47:10;9.90;99.90
34201;DHT22;20469;55.638;37.670;2022-10-03T16:49:55;10.00;99.90
34201;DHT22;20469;55.638;37.670;2022-10-03T16:52:53;10.00;99.90
34201;DHT22;20469;55.638;37.670;2022-10-03T16:55:44;9.90;99.90
34201;DHT22;20469;55.638;37.670;2022-10-03T16:58:24;10.20;99.90
34201;DHT22;20469;55.638;37.670;2022-10-03T17:01:09;10.20;99.90
34201;DHT22;20469;55.638;37.670;2022-10-03T17:04:13;10.30;99.90
34201;DHT22;20469;55.638;37.670;2022-10-03T17:07:10;10.20;99.90
34201;DHT22;20469;55.638;37.670;2022-10-03T17:10:31;10.20;99.90
34201;DHT22;20469;55.638;37.670;2022-10-03T17:13:11;10.40;99.90
34201;DHT22;20469;55.638;37.670;2022-10-03T17:15:50;10.10;99.90
34201;DHT22;20469;55.638;37.670;2022-10-03T17:18:44;9.80;99.90
34201;DHT22;20469;55.638;37.670;2022-10-03T17:21:26;10.50;99.90
34201;DHT22;20469;55.638;37.670;2022-10-03T17:24:10;10.40;99.90
34201;DHT22;20469;55.638;37.670;2022-10-03T17:26:45;10.20;99.90
34201;DHT22;20469;55.638;37.670;2022-10-03T17:29:32;10.00;99.90
34201;DHT22;20469;55.638;37.670;2022-10-03T17:32:24;10.00;99.90
34201;DHT22;20469;55.638;37.670;2022-10-03T17:35:12;10.00;99.90
34201;DHT22;20469;55.638;37.670;2022-10-03T17:38:08;9.80;99.90
34201;DHT22;20469;55.638;37.670;2022-10-03T17:41:13;9.90;99.90
34201;DHT22;20469;55.638;37.670;2022-10-03T17:44:17;9.90;99.90
34201;DHT22;20469;55.638;37.670;2022-10-03T17:47:17;9.90;99.90
34201;DHT22;20469;55.638;37.670;2022-10-03T17:49:59;9.80;99.90
34201;DHT22;20469;55.638;37.670;2022-10-03T17:52:45;9.70;99.90
34201;DHT22;20469;55.638;37.670;2022-10-03T17:58:19;10.00;99.90
34201;DHT22;20469;55.638;37.670;2022-10-03T18:01:04;10.20;99.90
34201;DHT22;20469;55.638;37.670;2022-10-03T18:03:48;10.60;99.90
34201;DHT22;20469;55.638;37.670;2022-10-03T18:06:37;10.20;99.90
34201;DHT22;20469;55.638;37.670;2022-10-03T18:09:33;10.20;99.90
34201;DHT22;20469;55.638;37.670;2022-10-03T18:18:44;10.30;99.90
34201;DHT22;20469;55.638;37.670;2022-10-03T18:24:50;10.40;99.90
34201;DHT22;20469;55.638;37.670;2022-10-03T18:27:43;10.40;99.90
34201;DHT22;20469;55.638;37.670;2022-10-03T18:30:31;10.40;99.90
34201;DHT22;20469;55.638;37.670;2022-10-03T18:33:06;10.30;99.90
34201;DHT22;20469;55.638;37.670;2022-10-03T18:35:44;10.40;99.90
34201;DHT22;20469;55.638;37.670;2022-10-03T18:38:21;10.80;99.90
34201;DHT22;20469;55.638;37.670;2022-10-03T18:40:54;10.40;99.90
34201;DHT22;20469;55.638;37.670;2022-10-03T18:43:31;10.40;99.90
34201;DHT22;20469;55.638;37.670;2022-10-03T18:46:14;10.50;99.90
34201;DHT22;20469;55.638;37.670;2022-10-03T18:48:59;10.60;99.90
34201;DHT22;20469;55.638;37.670;2022-10-03T18:54:58;10.80;99.90
34201;DHT22;20469;55.638;37.670;2022-10-03T18:57:38;10.80;99.90
34201;DHT22;20469;55.638;37.670;2022-10-03T19:00:24;10.70;99.90
34201;DHT22;20469;55.638;37.670;2022-10-03T19:03:00;10.80;99.90
34201;DHT22;20469;55.638;37.670;2022-10-03T19:08:54;10.80;99.90
34201;DHT22;20469;55.638;37.670;2022-10-03T19:11:39;10.80;99.90
34201;DHT22;20469;55.638;37.670;2022-10-03T19:14:15;10.80;99.90
34201;DHT22;20469;55.638;37.670;2022-10-03T19:17:10;10.80;99.90
34201;DHT22;20469;55.638;37.670;2022-10-03T19:19:53;10.80;99.90
34201;DHT22;20469;55.638;37.670;2022-10-03T19:22:38;10.80;99.90
34201;DHT22;20469;55.638;37.670;2022-10-03T19:25:20;10.90;99.90
34201;DHT22;20469;55.638;37.670;2022-10-03T19:27:58;11.00;99.90
34201;DHT22;20469;55.638;37.670;2022-10-03T19:30:33;10.90;99.90
34201;DHT22;20469;55.638;37.670;2022-10-03T19:33:17;10.90;99.90
34201;DHT22;20469;55.638;37.670;2022-10-03T19:35:51;11.00;99.90
34201;DHT22;20469;55.638;37.670;2022-10-03T19:38:35;11.00;99.90
34201;DHT22;20469;55.638;37.670;2022-10-03T19:41:50;11.10;99.90
34201;DHT22;20469;55.638;37.670;2022-10-03T19:44:26;11.10;99.90
34201;DHT22;20469;55.638;37.670;2022-10-03T19:52:45;11.20;99.90
34201;DHT22;20469;55.638;37.670;2022-10-03T19:58:18;11.20;99.90
34201;DHT22;20469;55.638;37.670;2022-10-03T20:00:54;11.30;99.90
34201;DHT22;20469;55.638;37.670;2022-10-03T20:03:39;11.30;99.90
34201;DHT22;20469;55.638;37.670;2022-10-03T20:06:24;11.40;99.90
34201;DHT22;20469;55.638;37.670;2022-10-03T20:09:02;11.30;99.90
34201;DHT22;20469;55.638;37.670;2022-10-03T20:11:51;11.30;99.90
34201;DHT22;20469;55.638;37.670;2022-10-03T20:14:33;11.40;99.90
34201;DHT22;20469;55.638;37.670;2022-10-03T20:17:22;11.50;99.90
34201;DHT22;20469;55.638;37.670;2022-10-03T20:20:10;11.40;99.90
34201;DHT22;20469;55.638;37.670;2022-10-03T20:22:54;11.50;99.90
34201;DHT22;20469;55.638;37.670;2022-10-03T20:25:34;11.50;99.90
34201;DHT22;20469;55.638;37.670;2022-10-03T20:28:14;11.50;99.90
34201;DHT22;20469;55.638;37.670;2022-10-03T20:30:48;11.50;99.90
34201;DHT22;20469;55.638;37.670;2022-10-03T20:33:29;11.50;99.90
34201;DHT22;20469;55.638;37.670;2022-10-03T20:36:09;11.60;99.90
34201;DHT22;20469;55.638;37.670;2022-10-03T20:47:42;11.40;99.90
34201;DHT22;20469;55.638;37.670;2022-10-03T20:50:24;11.80;99.90
34201;DHT22;20469;55.638;37.670;2022-10-03T20:53:00;11.30;99.90
34201;DHT22;20469;55.638;37.670;2022-10-03T20:55:33;11.00;99.90
34201;DHT22;20469;55.638;37.670;2022-10-03T20:58:11;11.60;99.90
34201;DHT22;20469;55.638;37.670;2022-10-03T21:00:47;11.80;99.90
34201;DHT22;20469;55.638;37.670;2022-10-03T21:03:32;11.30;99.90
34201;DHT22;20469;55.638;37.670;2022-10-03T21:06:17;11.30;99.90
34201;DHT22;20469;55.638;37.670;2022-10-03T21:09:03;11.40;99.90
34201;DHT22;20469;55.638;37.670;2022-10-03T21:11:32;11.30;99.90
34201;DHT22;20469;55.638;37.670;2022-10-03T21:14:17;11.40;99.90
34201;DHT22;20469;55.638;37.670;2022-10-03T21:16:55;11.30;99.90
34201;DHT22;20469;55.638;37.670;2022-10-03T21:19:41;11.40;99.90
34201;DHT22;20469;55.638;37.670;2022-10-03T21:22:16;11.40;99.90
34201;DHT22;20469;55.638;37.670;2022-10-03T21:24:52;11.50;99.90
34201;DHT22;20469;55.638;37.670;2022-10-03T21:30:00;11.40;99.90
34201;DHT22;20469;55.638;37.670;2022-10-03T21:32:45;11.50;99.90
34201;DHT22;20469;55.638;37.670;2022-10-03T21:35:26;12.20;99.90
34201;DHT22;20469;55.638;37.670;2022-10-03T21:38:04;11.80;99.90
34201;DHT22;20469;55.638;37.670;2022-10-03T21:49:28;11.30;99.90
34201;DHT22;20469;55.638;37.670;2022-10-03T21:52:23;11.50;99.90
34201;DHT22;20469;55.638;37.670;2022-10-03T21:55:15;11.30;99.90
34201;DHT22;20469;55.638;37.670;2022-10-03T22:04:22;11.50;99.90
34201;DHT22;20469;55.638;37.670;2022-10-03T22:07:04;11.40;99.90
34201;DHT22;20469;55.638;37.670;2022-10-03T22:09:53;11.40;99.90
34201;DHT22;20469;55.638;37.670;2022-10-03T22:12:26;11.50;99.90
34201;DHT22;20469;55.638;37.670;2022-10-03T22:15:07;11.40;99.90
34201;DHT22;20469;55.638;37.670;2022-10-03T22:17:46;11.40;99.90
34201;DHT22;20469;55.638;37.670;2022-10-03T22:20:19;12.60;99.90
34201;DHT22;20469;55.638;37.670;2022-10-03T22:23:08;11.40;99.90
34201;DHT22;20469;55.638;37.670;2022-10-03T22:31:43;11.50;99.90
34201;DHT22;20469;55.638;37.670;2022-10-03T22:34:31;11.50;99.90
34201;DHT22;20469;55.638;37.670;2022-10-03T22:37:05;11.40;99.90
34201;DHT22;20469;55.638;37.670;2022-10-03T22:39:34;11.50;99.90
34201;DHT22;20469;55.638;37.670;2022-10-03T22:42:03;11.50;99.90
34201;DHT22;20469;55.638;37.670;2022-10-03T22:44:34;11.20;99.90
34201;DHT22;20469;55.638;37.670;2022-10-03T22:47:10;11.40;99.90
34201;DHT22;20469;55.638;37.670;2022-10-03T22:49:40;11.40;99.90
34201;DHT22;20469;55.638;37.670;2022-10-03T22:52:17;11.50;99.90
34201;DHT22;20469;55.638;37.670;2022-10-03T22:54:48;11.40;99.90
34201;DHT22;20469;55.638;37.670;2022-10-03T23:02:37;10.90;99.90
34201;DHT22;20469;55.638;37.670;2022-10-03T23:05:15;11.50;99.90
34201;DHT22;20469;55.638;37.670;2022-10-03T23:07:59;11.20;99.90
34201;DHT22;20469;55.638;37.670;2022-10-03T23:10:47;11.40;99.90
34201;DHT22;20469;55.638;37.670;2022-10-03T23:13:39;11.50;99.90
34201;DHT22;20469;55.638;37.670;2022-10-03T23:19:27;11.90;99.90
34201;DHT22;20469;55.638;37.670;2022-10-03T23:22:00;11.30;99.90
34201;DHT22;20469;55.638;37.670;2022-10-03T23:24:40;11.20;99.90
34201;DHT22;20469;55.638;37.670;2022-10-03T23:27:34;11.30;99.90
34201;DHT22;20469;55.638;37.670;2022-10-03T23:33:15;11.30;99.90
34201;DHT22;20469;55.638;37.670;2022-10-03T23:35:44;11.40;99.90
34201;DHT22;20469;55.638;37.670;2022-10-03T23:41:41;11.40;99.90
34201;DHT22;20469;55.638;37.670;2022-10-03T23:44:30;11.30;99.90
34201;DHT22;20469;55.638;37.670;2022-10-03T23:47:01;11.10;99.90
34201;DHT22;20469;55.638;37.670;2022-10-03T23:49:31;11.40;99.90
34201;DHT22;20469;55.638;37.670;2022-10-03T23:51:59;11.50;99.90
34201;DHT22;20469;55.638;37.670;2022-10-03T23:57:03;11.20;99.90
34201;DHT22;20469;55.638;37.670;2022-10-03T23:59:34;11.30;99.90
